createdAt,value
2018-07-06T00:00:07.289Z,0.00
2018-07-06T00:01:07.210Z,0.00
2018-07-06T00:02:07.139Z,0.00
2018-07-06T00:03:07.063Z,0.00
2018-07-06T00:04:06.995Z,0.00
2018-07-06T00:05:06.917Z,0.00
2018-07-06T00:06:06.843Z,0.00
2018-07-06T00:07:06.772Z,0.00
2018-07-06T00:08:06.704Z,0.00
2018-07-06T00:09:06.624Z,0.00
2018-07-06T00:10:06.549Z,0.00
2018-07-06T00:11:06.567Z,0.00
2018-07-06T00:12:06.405Z,0.00
2018-07-06T00:13:06.329Z,0.00
2018-07-06T00:14:06.256Z,0.00
2018-07-06T00:15:06.182Z,0.00
2018-07-06T00:16:06.109Z,0.00
2018-07-06T00:17:06.037Z,0.00
2018-07-06T00:18:05.962Z,0.00
2018-07-06T00:19:05.888Z,0.00
2018-07-06T00:20:05.811Z,0.00
2018-07-06T00:21:05.739Z,0.00
2018-07-06T00:22:05.679Z,0.00
2018-07-06T00:23:05.597Z,0.00
2018-07-06T00:24:05.520Z,0.00
2018-07-06T00:25:05.446Z,0.00
2018-07-06T00:26:05.387Z,0.00
2018-07-06T00:27:05.298Z,0.00
2018-07-06T00:28:05.224Z,0.00
2018-07-06T00:29:05.155Z,0.00
2018-07-06T00:30:05.079Z,0.00
2018-07-06T00:31:05.023Z,0.00
2018-07-06T00:32:04.934Z,0.00
2018-07-06T00:33:04.930Z,0.00
2018-07-06T00:34:04.784Z,0.00
2018-07-06T00:35:04.710Z,0.00
2018-07-06T00:36:04.640Z,0.00
2018-07-06T00:37:04.566Z,0.00
2018-07-06T00:38:04.489Z,0.00
2018-07-06T00:39:04.416Z,0.00
2018-07-06T00:40:04.344Z,0.00
2018-07-06T00:41:04.271Z,0.00
2018-07-06T00:42:04.197Z,0.00
2018-07-06T00:43:04.125Z,0.00
2018-07-06T00:44:04.053Z,0.00
2018-07-06T00:45:03.994Z,0.00
2018-07-06T00:46:03.907Z,0.00
2018-07-06T00:47:03.830Z,0.00
2018-07-06T00:48:03.755Z,0.00
2018-07-06T00:49:03.698Z,0.00
2018-07-06T00:50:03.616Z,0.00
2018-07-06T00:51:03.538Z,0.00
2018-07-06T00:52:03.465Z,0.00
2018-07-06T00:53:03.396Z,0.00
2018-07-06T00:54:03.320Z,0.00
2018-07-06T00:55:03.248Z,0.00
2018-07-06T00:56:03.180Z,0.00
2018-07-06T00:57:03.141Z,0.00
2018-07-06T00:58:03.041Z,0.00
2018-07-06T00:59:02.958Z,0.00
2018-07-06T01:00:02.882Z,0.00
2018-07-06T01:01:02.808Z,0.00
2018-07-06T01:02:02.735Z,0.00
2018-07-06T01:03:02.679Z,0.00
2018-07-06T01:04:02.589Z,0.00
2018-07-06T01:05:02.515Z,0.00
2018-07-06T01:06:02.446Z,0.00
2018-07-06T01:07:02.365Z,0.00
2018-07-06T01:08:02.294Z,0.00
2018-07-06T01:09:02.223Z,0.00
2018-07-06T01:10:02.150Z,0.00
2018-07-06T01:11:02.079Z,0.00
2018-07-06T01:12:02.016Z,0.00
2018-07-06T01:13:01.926Z,0.00
2018-07-06T01:14:01.853Z,0.00
2018-07-06T01:15:01.783Z,0.00
2018-07-06T01:16:01.706Z,0.00
2018-07-06T01:17:01.654Z,0.00
2018-07-06T01:18:01.568Z,0.00
2018-07-06T01:19:01.488Z,0.00
2018-07-06T01:20:01.422Z,0.00
2018-07-06T01:21:01.344Z,0.00
2018-07-06T01:22:01.270Z,0.00
2018-07-06T01:23:01.196Z,0.00
2018-07-06T01:24:01.125Z,0.00
2018-07-06T01:25:01.050Z,0.00
2018-07-06T01:26:01.003Z,0.00
2018-07-06T01:27:00.907Z,0.00
2018-07-06T01:28:00.869Z,0.00
2018-07-06T01:29:00.755Z,0.00
2018-07-06T01:30:00.683Z,0.00
2018-07-06T01:31:00.610Z,0.00
2018-07-06T01:32:00.535Z,0.00
2018-07-06T01:33:00.461Z,0.00
2018-07-06T01:34:00.392Z,0.00
2018-07-06T01:35:00.318Z,0.00
2018-07-06T01:36:00.265Z,0.00
2018-07-06T01:37:00.170Z,0.00
2018-07-06T01:38:00.100Z,0.00
2018-07-06T01:39:00.034Z,0.00
2018-07-06T01:39:59.959Z,0.00
2018-07-06T01:40:59.878Z,0.00
2018-07-06T01:41:59.801Z,0.00
2018-07-06T01:42:59.739Z,0.00
2018-07-06T01:43:59.654Z,0.00
2018-07-06T01:44:59.599Z,0.00
2018-07-06T01:45:59.509Z,0.00
2018-07-06T01:46:59.436Z,0.00
2018-07-06T01:47:59.367Z,0.00
2018-07-06T01:48:59.296Z,0.00
2018-07-06T01:49:59.216Z,0.00
2018-07-06T01:50:59.143Z,0.00
2018-07-06T01:51:59.070Z,0.00
2018-07-06T01:52:59.020Z,0.00
2018-07-06T01:53:58.946Z,0.00
2018-07-06T01:54:58.851Z,0.00
2018-07-06T01:55:58.777Z,0.00
2018-07-06T01:56:58.702Z,0.00
2018-07-06T01:57:58.630Z,0.00
2018-07-06T01:58:58.557Z,0.00
2018-07-06T01:59:58.491Z,0.00
2018-07-06T02:00:58.413Z,0.00
2018-07-06T02:01:58.342Z,0.00
2018-07-06T02:02:58.265Z,0.00
2018-07-06T02:03:58.191Z,0.00
2018-07-06T02:04:58.116Z,0.00
2018-07-06T02:05:58.047Z,0.00
2018-07-06T02:06:57.978Z,0.00
2018-07-06T02:07:57.897Z,0.00
2018-07-06T02:08:57.824Z,0.00
2018-07-06T02:09:57.753Z,0.00
2018-07-06T02:10:57.681Z,0.00
2018-07-06T02:11:57.607Z,0.00
2018-07-06T02:12:57.533Z,0.00
2018-07-06T02:13:57.457Z,0.00
2018-07-06T02:14:57.380Z,0.00
2018-07-06T02:15:57.310Z,0.00
2018-07-06T02:16:57.236Z,0.00
2018-07-06T02:17:57.164Z,0.00
2018-07-06T02:18:57.089Z,0.00
2018-07-06T02:19:57.016Z,0.00
2018-07-06T02:20:56.940Z,0.00
2018-07-06T02:21:56.871Z,0.00
2018-07-06T02:22:56.804Z,0.00
2018-07-06T02:23:56.724Z,0.00
2018-07-06T02:24:56.664Z,0.00
2018-07-06T02:25:56.582Z,0.00
2018-07-06T02:26:56.508Z,0.00
2018-07-06T02:27:56.427Z,0.00
2018-07-06T02:28:56.361Z,0.00
2018-07-06T02:29:56.281Z,0.00
2018-07-06T02:30:56.212Z,0.00
2018-07-06T02:31:56.138Z,0.00
2018-07-06T02:32:56.062Z,0.00
2018-07-06T02:33:56.000Z,0.00
2018-07-06T02:34:55.915Z,0.00
2018-07-06T02:35:55.841Z,0.00
2018-07-06T02:36:55.769Z,0.00
2018-07-06T02:37:55.720Z,0.00
2018-07-06T02:38:55.623Z,0.00
2018-07-06T02:39:55.560Z,0.00
2018-07-06T02:40:55.478Z,0.00
2018-07-06T02:41:55.402Z,0.00
2018-07-06T02:42:55.329Z,0.00
2018-07-06T02:43:55.256Z,0.00
2018-07-06T02:44:55.185Z,0.00
2018-07-06T02:45:55.108Z,0.00
2018-07-06T02:46:55.049Z,0.00
2018-07-06T02:47:54.963Z,0.00
2018-07-06T02:48:54.889Z,0.00
2018-07-06T02:49:54.821Z,0.00
2018-07-06T02:50:54.745Z,4.00
2018-07-06T02:51:54.670Z,4.00
2018-07-06T02:52:54.596Z,4.00
2018-07-06T02:53:54.526Z,4.00
2018-07-06T02:54:54.450Z,0.00
2018-07-06T02:55:54.377Z,0.00
2018-07-06T02:56:54.334Z,4.00
2018-07-06T02:57:54.230Z,4.00
2018-07-06T02:58:54.176Z,4.00
2018-07-06T02:59:54.091Z,4.00
2018-07-06T03:00:54.014Z,4.00
2018-07-06T03:01:53.942Z,4.00
2018-07-06T03:02:53.867Z,4.00
2018-07-06T03:03:53.792Z,8.00
2018-07-06T03:04:53.719Z,8.00
2018-07-06T03:05:53.649Z,4.00
2018-07-06T03:06:53.583Z,8.00
2018-07-06T03:07:53.499Z,12.00
2018-07-06T03:08:53.424Z,8.00
2018-07-06T03:09:53.352Z,12.00
2018-07-06T03:10:53.281Z,12.00
2018-07-06T03:11:53.208Z,16.00
2018-07-06T03:12:53.134Z,16.00
2018-07-06T03:13:53.063Z,16.00
2018-07-06T03:14:52.985Z,12.00
2018-07-06T03:15:52.928Z,12.00
2018-07-06T03:16:52.842Z,12.00
2018-07-06T03:17:52.767Z,16.00
2018-07-06T03:18:52.699Z,16.00
2018-07-06T03:19:52.622Z,16.00
2018-07-06T03:20:52.548Z,20.00
2018-07-06T03:21:52.476Z,20.00
2018-07-06T03:22:52.400Z,16.00
2018-07-06T03:23:52.326Z,16.00
2018-07-06T03:24:52.253Z,20.00
2018-07-06T03:25:52.184Z,16.00
2018-07-06T03:26:52.108Z,20.00
2018-07-06T03:27:52.039Z,16.00
2018-07-06T03:28:52.138Z,16.00
2018-07-06T03:29:51.890Z,16.00
2018-07-06T03:30:51.817Z,16.00
2018-07-06T03:31:51.743Z,16.00
2018-07-06T03:32:51.669Z,16.00
2018-07-06T03:33:51.607Z,16.00
2018-07-06T03:34:51.533Z,20.00
2018-07-06T03:35:51.456Z,20.00
2018-07-06T03:36:51.374Z,24.00
2018-07-06T03:37:51.306Z,24.00
2018-07-06T03:38:51.228Z,24.00
2018-07-06T03:39:51.157Z,32.00
2018-07-06T03:40:51.103Z,32.00
2018-07-06T03:41:51.009Z,36.00
2018-07-06T03:42:50.959Z,36.00
2018-07-06T03:43:50.898Z,40.00
2018-07-06T03:44:50.803Z,44.00
2018-07-06T03:45:50.724Z,40.00
2018-07-06T03:46:50.643Z,48.00
2018-07-06T03:47:50.569Z,48.00
2018-07-06T03:48:50.496Z,56.00
2018-07-06T03:49:50.423Z,60.00
2018-07-06T03:50:50.348Z,68.00
2018-07-06T03:51:50.278Z,68.00
2018-07-06T03:52:50.202Z,72.00
2018-07-06T03:53:50.133Z,72.00
2018-07-06T03:54:50.090Z,76.00
2018-07-06T03:55:49.980Z,80.00
2018-07-06T03:56:49.910Z,92.00
2018-07-06T03:57:49.856Z,96.00
2018-07-06T03:58:49.761Z,104.00
2018-07-06T03:59:49.686Z,112.00
2018-07-06T04:00:49.613Z,124.00
2018-07-06T04:01:49.551Z,140.00
2018-07-06T04:02:49.468Z,156.00
2018-07-06T04:03:49.393Z,168.00
2018-07-06T04:04:49.324Z,180.00
2018-07-06T04:05:49.248Z,196.00
2018-07-06T04:06:49.175Z,216.00
2018-07-06T04:07:49.128Z,240.00
2018-07-06T04:08:49.028Z,264.00
2018-07-06T04:09:48.953Z,296.00
2018-07-06T04:10:48.880Z,324.00
2018-07-06T04:11:48.806Z,344.00
2018-07-06T04:12:48.732Z,368.00
2018-07-06T04:13:48.672Z,384.00
2018-07-06T04:14:48.588Z,388.00
2018-07-06T04:15:48.511Z,388.00
2018-07-06T04:16:48.437Z,368.00
2018-07-06T04:17:48.363Z,348.00
2018-07-06T04:18:48.293Z,328.00
2018-07-06T04:19:48.229Z,320.00
2018-07-06T04:20:48.142Z,320.00
2018-07-06T04:21:48.074Z,332.00
2018-07-06T04:22:47.997Z,348.00
2018-07-06T04:23:47.924Z,372.00
2018-07-06T04:24:47.862Z,396.00
2018-07-06T04:25:47.782Z,428.00
2018-07-06T04:26:47.705Z,456.00
2018-07-06T04:27:47.632Z,472.00
2018-07-06T04:28:47.556Z,480.00
2018-07-06T04:29:47.482Z,488.00
2018-07-06T04:30:47.411Z,492.00
2018-07-06T04:31:47.332Z,488.00
2018-07-06T04:32:47.262Z,488.00
2018-07-06T04:33:47.189Z,484.00
2018-07-06T04:34:47.116Z,484.00
2018-07-06T04:35:47.040Z,492.00
2018-07-06T04:36:46.964Z,504.00
2018-07-06T04:37:46.918Z,516.00
2018-07-06T04:38:46.822Z,548.00
2018-07-06T04:39:46.747Z,576.00
2018-07-06T04:40:46.670Z,564.00
2018-07-06T04:41:46.599Z,552.00
2018-07-06T04:42:46.529Z,532.00
2018-07-06T04:43:46.450Z,524.00
2018-07-06T04:44:46.404Z,516.00
2018-07-06T04:45:46.305Z,512.00
2018-07-06T04:46:46.232Z,508.00
2018-07-06T04:47:46.156Z,492.00
2018-07-06T04:48:46.082Z,476.00
2018-07-06T04:49:46.011Z,464.00
2018-07-06T04:50:45.945Z,464.00
2018-07-06T04:51:45.878Z,456.00
2018-07-06T04:52:45.787Z,448.00
2018-07-06T04:53:45.713Z,440.00
2018-07-06T04:54:45.661Z,440.00
2018-07-06T04:55:45.565Z,444.00
2018-07-06T04:56:45.514Z,448.00
2018-07-06T04:57:45.420Z,452.00
2018-07-06T04:58:45.347Z,452.00
2018-07-06T04:59:45.285Z,456.00
2018-07-06T05:00:45.196Z,476.00
2018-07-06T05:01:45.123Z,508.00
2018-07-06T05:02:45.052Z,536.00
2018-07-06T05:03:44.979Z,568.00
2018-07-06T05:04:44.907Z,584.00
2018-07-06T05:05:44.832Z,600.00
2018-07-06T05:06:44.754Z,608.00
2018-07-06T05:07:44.751Z,612.00
2018-07-06T05:08:44.607Z,624.00
2018-07-06T05:09:44.536Z,636.00
2018-07-06T05:10:44.471Z,636.00
2018-07-06T05:11:44.390Z,616.00
2018-07-06T05:12:44.310Z,596.00
2018-07-06T05:13:44.249Z,556.00
2018-07-06T05:14:44.164Z,504.00
2018-07-06T05:15:44.109Z,460.00
2018-07-06T05:16:44.081Z,428.00
2018-07-06T05:17:43.942Z,412.00
2018-07-06T05:18:43.910Z,404.00
2018-07-06T05:19:43.793Z,388.00
2018-07-06T05:20:43.721Z,388.00
2018-07-06T05:21:43.645Z,384.00
2018-07-06T05:22:43.575Z,384.00
2018-07-06T05:23:43.496Z,376.00
2018-07-06T05:24:43.443Z,368.00
2018-07-06T05:25:43.348Z,356.00
2018-07-06T05:26:43.295Z,340.00
2018-07-06T05:27:43.232Z,328.00
2018-07-06T05:28:43.127Z,320.00
2018-07-06T05:29:43.065Z,320.00
2018-07-06T05:30:42.979Z,324.00
2018-07-06T05:31:42.907Z,340.00
2018-07-06T05:32:42.833Z,356.00
2018-07-06T05:33:42.758Z,356.00
2018-07-06T05:34:42.696Z,368.00
2018-07-06T05:35:42.609Z,368.00
2018-07-06T05:36:42.537Z,376.00
2018-07-06T05:37:42.523Z,368.00
2018-07-06T05:38:42.387Z,356.00
2018-07-06T05:39:42.325Z,340.00
2018-07-06T05:40:42.242Z,316.00
2018-07-06T05:41:42.168Z,300.00
2018-07-06T05:42:42.093Z,288.00
2018-07-06T05:43:42.018Z,284.00
2018-07-06T05:44:41.944Z,272.00
2018-07-06T05:45:41.877Z,248.00
2018-07-06T05:46:41.797Z,232.00
2018-07-06T05:47:41.725Z,216.00
2018-07-06T05:48:41.650Z,212.00
2018-07-06T05:49:41.577Z,208.00
2018-07-06T05:50:41.503Z,204.00
2018-07-06T05:51:41.428Z,220.00
2018-07-06T05:52:41.353Z,232.00
2018-07-06T05:53:41.299Z,240.00
2018-07-06T05:54:41.205Z,236.00
2018-07-06T05:55:41.132Z,228.00
2018-07-06T05:56:41.074Z,232.00
2018-07-06T05:57:40.986Z,232.00
2018-07-06T05:58:40.914Z,224.00
2018-07-06T05:59:40.838Z,224.00
2018-07-06T06:00:40.781Z,220.00
2018-07-06T06:01:40.693Z,200.00
2018-07-06T06:02:40.627Z,224.00
2018-07-06T06:03:40.546Z,228.00
2018-07-06T06:04:40.548Z,232.00
2018-07-06T06:05:40.396Z,260.00
2018-07-06T06:06:40.328Z,276.00
2018-07-06T06:07:40.255Z,288.00
2018-07-06T06:08:40.184Z,296.00
2018-07-06T06:09:40.101Z,296.00
2018-07-06T06:10:40.029Z,300.00
2018-07-06T06:11:39.974Z,316.00
2018-07-06T06:12:39.878Z,336.00
2018-07-06T06:13:39.806Z,348.00
2018-07-06T06:14:39.734Z,368.00
2018-07-06T06:15:39.663Z,396.00
2018-07-06T06:16:39.584Z,400.00
2018-07-06T06:17:39.562Z,428.00
2018-07-06T06:18:39.502Z,456.00
2018-07-06T06:19:39.367Z,480.00
2018-07-06T06:20:39.304Z,528.00
2018-07-06T06:21:39.214Z,552.00
2018-07-06T06:22:39.150Z,580.00
2018-07-06T06:23:39.065Z,616.00
2018-07-06T06:24:38.990Z,656.00
2018-07-06T06:25:38.922Z,676.00
2018-07-06T06:26:38.845Z,696.00
2018-07-06T06:27:38.770Z,712.00
2018-07-06T06:28:38.708Z,728.00
2018-07-06T06:29:38.623Z,748.00
2018-07-06T06:30:38.557Z,760.00
2018-07-06T06:31:38.473Z,776.00
2018-07-06T06:32:38.402Z,804.00
2018-07-06T06:33:38.410Z,836.00
2018-07-06T06:34:38.260Z,852.00
2018-07-06T06:35:38.175Z,868.00
2018-07-06T06:36:38.108Z,880.00
2018-07-06T06:37:38.029Z,892.00
2018-07-06T06:38:37.954Z,896.00
2018-07-06T06:39:37.879Z,896.00
2018-07-06T06:40:37.818Z,892.00
2018-07-06T06:41:37.732Z,900.00
2018-07-06T06:42:37.668Z,912.00
2018-07-06T06:43:37.582Z,928.00
2018-07-06T06:44:37.520Z,936.00
2018-07-06T06:45:37.437Z,952.00
2018-07-06T06:46:37.399Z,960.00
2018-07-06T06:47:37.291Z,968.00
2018-07-06T06:48:37.216Z,972.00
2018-07-06T06:49:37.160Z,968.00
2018-07-06T06:50:37.066Z,960.00
2018-07-06T06:51:36.989Z,964.00
2018-07-06T06:52:36.923Z,976.00
2018-07-06T06:53:36.844Z,1004.00
2018-07-06T06:54:36.770Z,1036.00
2018-07-06T06:55:36.703Z,1056.00
2018-07-06T06:56:36.662Z,1072.00
2018-07-06T06:57:36.549Z,1100.00
2018-07-06T06:58:36.474Z,1116.00
2018-07-06T06:59:36.411Z,1124.00
2018-07-06T07:00:36.325Z,1120.00
2018-07-06T07:01:36.252Z,1108.00
2018-07-06T07:02:36.226Z,1092.00
2018-07-06T07:03:36.131Z,1044.00
2018-07-06T07:04:36.030Z,1064.00
2018-07-06T07:05:35.955Z,1084.00
2018-07-06T07:06:35.882Z,1112.00
2018-07-06T07:07:35.903Z,1156.00
2018-07-06T07:08:35.734Z,1196.00
2018-07-06T07:09:35.660Z,1240.00
2018-07-06T07:10:35.585Z,1300.00
2018-07-06T07:11:35.510Z,1344.00
2018-07-06T07:12:35.437Z,1380.00
2018-07-06T07:13:35.397Z,1388.00
2018-07-06T07:14:35.290Z,1368.00
2018-07-06T07:15:35.215Z,1396.00
2018-07-06T07:16:35.143Z,1388.00
2018-07-06T07:17:35.084Z,1356.00
2018-07-06T07:18:35.016Z,1308.00
2018-07-06T07:19:34.923Z,1220.00
2018-07-06T07:20:34.849Z,1136.00
2018-07-06T07:21:34.774Z,1016.00
2018-07-06T07:22:34.700Z,912.00
2018-07-06T07:23:34.679Z,796.00
2018-07-06T07:24:34.557Z,740.00
2018-07-06T07:25:34.479Z,604.00
2018-07-06T07:26:34.403Z,524.00
2018-07-06T07:27:34.341Z,492.00
2018-07-06T07:28:34.258Z,476.00
2018-07-06T07:29:34.184Z,472.00
2018-07-06T07:30:34.110Z,492.00
2018-07-06T07:31:34.037Z,520.00
2018-07-06T07:32:33.966Z,548.00
2018-07-06T07:33:33.889Z,572.00
2018-07-06T07:34:33.817Z,612.00
2018-07-06T07:35:33.741Z,652.00
2018-07-06T07:36:33.668Z,684.00
2018-07-06T07:37:33.596Z,696.00
2018-07-06T07:38:33.522Z,708.00
2018-07-06T07:39:33.448Z,700.00
2018-07-06T07:40:33.378Z,696.00
2018-07-06T07:41:33.307Z,712.00
2018-07-06T07:42:33.228Z,736.00
2018-07-06T07:43:33.159Z,748.00
2018-07-06T07:44:33.078Z,732.00
2018-07-06T07:45:33.009Z,728.00
2018-07-06T07:46:33.067Z,760.00
2018-07-06T07:47:32.856Z,800.00
2018-07-06T07:48:32.784Z,832.00
2018-07-06T07:49:32.712Z,908.00
2018-07-06T07:50:32.639Z,1048.00
2018-07-06T07:51:32.572Z,1040.00
2018-07-06T07:52:32.487Z,1072.00
2018-07-06T07:53:32.416Z,1168.00
2018-07-06T07:54:32.379Z,1276.00
2018-07-06T07:55:32.268Z,1364.00
2018-07-06T07:56:32.196Z,1424.00
2018-07-06T07:57:32.121Z,1444.00
2018-07-06T07:58:32.049Z,1368.00
2018-07-06T07:59:31.973Z,1456.00
2018-07-06T08:00:32.003Z,1568.00
2018-07-06T08:01:31.839Z,1704.00
2018-07-06T08:02:31.755Z,1804.00
2018-07-06T08:03:31.679Z,1884.00
2018-07-06T08:04:31.626Z,1988.00
2018-07-06T08:05:31.537Z,2068.00
2018-07-06T08:06:31.494Z,2156.00
2018-07-06T08:07:31.383Z,2244.00
2018-07-06T08:08:31.316Z,2336.00
2018-07-06T08:09:31.239Z,2424.00
2018-07-06T08:10:31.165Z,2520.00
2018-07-06T08:11:35.444Z,2604.00
2018-07-06T08:12:31.023Z,2652.00
2018-07-06T08:13:30.962Z,2664.00
2018-07-06T08:14:30.911Z,2720.00
2018-07-06T08:15:30.799Z,2764.00
2018-07-06T08:16:30.728Z,2796.00
2018-07-06T08:17:30.654Z,2820.00
2018-07-06T08:18:30.579Z,2840.00
2018-07-06T08:19:30.509Z,2872.00
2018-07-06T08:20:30.432Z,2904.00
2018-07-06T08:21:30.365Z,2936.00
2018-07-06T08:22:30.288Z,2964.00
2018-07-06T08:23:30.213Z,2980.00
2018-07-06T08:24:30.139Z,3016.00
2018-07-06T08:25:30.113Z,3060.00
2018-07-06T08:26:29.995Z,3104.00
2018-07-06T08:27:29.939Z,3152.00
2018-07-06T08:28:29.848Z,3200.00
2018-07-06T08:29:29.775Z,3240.00
2018-07-06T08:30:29.704Z,3280.00
2018-07-06T08:31:29.632Z,3316.00
2018-07-06T08:32:29.566Z,3356.00
2018-07-06T08:33:29.482Z,3396.00
2018-07-06T08:34:29.409Z,3432.00
2018-07-06T08:35:29.335Z,3468.00
2018-07-06T08:36:29.343Z,3496.00
2018-07-06T08:37:29.196Z,3540.00
2018-07-06T08:38:29.115Z,3580.00
2018-07-06T08:39:29.071Z,3620.00
2018-07-06T08:40:28.972Z,3656.00
2018-07-06T08:41:28.901Z,3704.00
2018-07-06T08:42:28.824Z,3740.00
2018-07-06T08:43:28.754Z,3780.00
2018-07-06T08:44:28.679Z,3812.00
2018-07-06T08:45:28.606Z,3852.00
2018-07-06T08:46:28.534Z,3888.00
2018-07-06T08:47:28.459Z,3920.00
2018-07-06T08:48:28.386Z,3952.00
2018-07-06T08:49:28.317Z,3984.00
2018-07-06T08:50:28.302Z,4016.00
2018-07-06T08:51:28.169Z,4028.00
2018-07-06T08:52:28.098Z,4048.00
2018-07-06T08:53:28.028Z,4072.00
2018-07-06T08:54:27.962Z,4096.00
2018-07-06T08:55:27.880Z,4116.00
2018-07-06T08:56:27.810Z,4140.00
2018-07-06T08:57:27.733Z,4160.00
2018-07-06T08:58:27.772Z,4188.00
2018-07-06T08:59:27.590Z,4212.00
2018-07-06T09:00:27.529Z,4232.00
2018-07-06T09:01:27.445Z,4248.00
2018-07-06T09:02:27.406Z,4264.00
2018-07-06T09:03:27.297Z,4288.00
2018-07-06T09:04:27.478Z,4320.00
2018-07-06T09:05:27.156Z,4348.00
2018-07-06T09:06:27.098Z,4372.00
2018-07-06T09:07:27.040Z,4400.00
2018-07-06T09:08:26.938Z,4416.00
2018-07-06T09:09:26.917Z,4424.00
2018-07-06T09:10:26.793Z,4436.00
2018-07-06T09:11:26.722Z,4440.00
2018-07-06T09:12:26.649Z,4448.00
2018-07-06T09:13:26.579Z,4456.00
2018-07-06T09:14:26.505Z,4452.00
2018-07-06T09:15:26.434Z,4480.00
2018-07-06T09:16:26.376Z,4500.00
2018-07-06T09:17:26.288Z,4536.00
2018-07-06T09:18:26.224Z,4572.00
2018-07-06T09:19:26.322Z,4616.00
2018-07-06T09:20:26.072Z,4664.00
2018-07-06T09:21:26.004Z,4728.00
2018-07-06T09:22:25.931Z,4796.00
2018-07-06T09:23:25.858Z,4860.00
2018-07-06T09:24:25.788Z,4932.00
2018-07-06T09:25:25.812Z,4988.00
2018-07-06T09:26:25.677Z,5036.00
2018-07-06T09:27:25.570Z,5084.00
2018-07-06T09:28:25.497Z,5120.00
2018-07-06T09:29:25.429Z,5152.00
2018-07-06T09:30:25.362Z,5188.00
2018-07-06T09:31:25.284Z,5232.00
2018-07-06T09:32:25.218Z,5252.00
2018-07-06T09:33:25.142Z,5248.00
2018-07-06T09:34:25.069Z,5260.00
2018-07-06T09:35:25.003Z,5264.00
2018-07-06T09:36:24.928Z,5276.00
2018-07-06T09:37:24.853Z,5284.00
2018-07-06T09:38:24.789Z,5316.00
2018-07-06T09:39:24.719Z,5340.00
2018-07-06T09:40:24.638Z,5392.00
2018-07-06T09:41:24.565Z,5452.00
2018-07-06T09:42:24.496Z,5508.00
2018-07-06T09:43:24.431Z,5576.00
2018-07-06T09:44:24.353Z,5588.00
2018-07-06T09:45:24.281Z,5692.00
2018-07-06T09:46:24.226Z,5736.00
2018-07-06T09:47:24.136Z,5804.00
2018-07-06T09:48:24.066Z,5876.00
2018-07-06T09:49:23.995Z,5932.00
2018-07-06T09:50:23.941Z,6000.00
2018-07-06T09:51:23.849Z,6056.00
2018-07-06T09:52:23.782Z,6100.00
2018-07-06T09:53:23.720Z,6140.00
2018-07-06T09:54:23.637Z,6204.00
2018-07-06T09:55:23.568Z,6244.00
2018-07-06T09:56:23.500Z,6276.00
2018-07-06T09:57:23.424Z,6312.00
2018-07-06T09:58:23.360Z,6312.00
2018-07-06T09:59:23.294Z,6340.00
2018-07-06T10:00:23.210Z,6324.00
2018-07-06T10:01:23.136Z,6328.00
2018-07-06T10:02:23.066Z,6328.00
2018-07-06T10:03:23.013Z,6300.00
2018-07-06T10:04:22.933Z,6228.00
2018-07-06T10:05:22.854Z,6152.00
2018-07-06T10:06:22.807Z,6132.00
2018-07-06T10:07:22.731Z,6096.00
2018-07-06T10:08:22.638Z,5784.00
2018-07-06T10:09:22.568Z,5868.00
2018-07-06T10:10:22.498Z,5700.00
2018-07-06T10:11:22.442Z,5744.00
2018-07-06T10:12:22.351Z,5928.00
2018-07-06T10:13:22.282Z,6004.00
2018-07-06T10:14:22.211Z,5980.00
2018-07-06T10:15:22.138Z,5852.00
2018-07-06T10:16:22.073Z,5840.00
2018-07-06T10:17:21.996Z,5800.00
2018-07-06T10:18:21.925Z,5736.00
2018-07-06T10:19:21.855Z,5788.00
2018-07-06T10:20:21.798Z,5780.00
2018-07-06T10:21:21.711Z,5800.00
2018-07-06T10:22:21.641Z,5640.00
2018-07-06T10:23:21.585Z,5536.00
2018-07-06T10:24:21.528Z,5672.00
2018-07-06T10:25:21.431Z,5692.00
2018-07-06T10:26:21.357Z,5524.00
2018-07-06T10:27:21.346Z,5664.00
2018-07-06T10:28:21.240Z,5684.00
2018-07-06T10:29:21.147Z,5516.00
2018-07-06T10:30:21.075Z,5532.00
2018-07-06T10:31:21.001Z,5804.00
2018-07-06T10:32:20.947Z,6092.00
2018-07-06T10:33:20.923Z,5816.00
2018-07-06T10:34:20.786Z,6432.00
2018-07-06T10:35:20.717Z,6404.00
2018-07-06T10:36:20.646Z,6372.00
2018-07-06T10:37:20.573Z,6424.00
2018-07-06T10:38:20.503Z,6616.00
2018-07-06T10:39:20.433Z,6888.00
2018-07-06T10:40:20.382Z,7024.00
2018-07-06T10:41:20.288Z,7204.00
2018-07-06T10:42:20.217Z,7468.00
2018-07-06T10:43:20.146Z,7660.00
2018-07-06T10:44:20.075Z,7836.00
2018-07-06T10:45:20.009Z,7996.00
2018-07-06T10:46:19.935Z,8176.00
2018-07-06T10:47:19.863Z,8268.00
2018-07-06T10:48:19.794Z,8408.00
2018-07-06T10:49:19.735Z,8504.00
2018-07-06T10:50:19.654Z,8500.00
2018-07-06T10:51:19.581Z,8412.00
2018-07-06T10:52:19.512Z,8332.00
2018-07-06T10:53:19.440Z,8428.00
2018-07-06T10:54:19.393Z,8320.00
2018-07-06T10:55:19.299Z,8032.00
2018-07-06T10:56:19.266Z,7900.00
2018-07-06T10:57:19.162Z,8204.00
2018-07-06T10:58:19.092Z,8720.00
2018-07-06T10:59:19.070Z,9080.00
2018-07-06T11:00:18.949Z,9344.00
2018-07-06T11:01:18.888Z,9496.00
2018-07-06T11:02:18.806Z,9548.00
2018-07-06T11:03:18.735Z,9684.00
2018-07-06T11:04:18.664Z,9828.00
2018-07-06T11:05:18.597Z,9904.00
2018-07-06T11:06:18.530Z,9836.00
2018-07-06T11:07:18.453Z,9984.00
2018-07-06T11:08:18.416Z,10000.00
2018-07-06T11:09:18.331Z,10008.00
2018-07-06T11:10:18.243Z,10048.00
2018-07-06T11:11:18.175Z,10104.00
2018-07-06T11:12:18.107Z,10156.00
2018-07-06T11:13:18.035Z,10224.00
2018-07-06T11:14:17.966Z,10348.00
2018-07-06T11:15:17.894Z,10452.00
2018-07-06T11:16:17.823Z,10524.00
2018-07-06T11:17:17.755Z,10640.00
2018-07-06T11:18:17.685Z,10812.00
2018-07-06T11:19:17.626Z,10904.00
2018-07-06T11:20:17.551Z,11068.00
2018-07-06T11:21:17.476Z,11140.00
2018-07-06T11:22:17.409Z,11236.00
2018-07-06T11:23:17.349Z,11280.00
2018-07-06T11:24:17.266Z,11308.00
2018-07-06T11:25:17.209Z,11332.00
2018-07-06T11:26:17.127Z,11416.00
2018-07-06T11:27:17.055Z,11488.00
2018-07-06T11:28:16.987Z,11552.00
2018-07-06T11:29:16.931Z,11612.00
2018-07-06T11:30:16.847Z,11688.00
2018-07-06T11:31:16.782Z,11732.00
2018-07-06T11:32:16.709Z,11844.00
2018-07-06T11:33:16.643Z,11904.00
2018-07-06T11:34:16.569Z,11948.00
2018-07-06T11:35:16.502Z,12028.00
2018-07-06T11:36:16.433Z,12036.00
2018-07-06T11:37:16.366Z,12000.00
2018-07-06T11:38:16.418Z,12196.00
2018-07-06T11:39:16.223Z,12216.00
2018-07-06T11:40:16.153Z,12432.00
2018-07-06T11:41:16.091Z,12544.00
2018-07-06T11:42:16.017Z,12404.00
2018-07-06T11:43:15.946Z,12740.00
2018-07-06T11:44:15.892Z,12592.00
2018-07-06T11:45:15.932Z,12672.00
2018-07-06T11:46:15.742Z,12564.00
2018-07-06T11:47:15.672Z,12428.00
2018-07-06T11:48:15.602Z,12052.00
2018-07-06T11:49:15.534Z,10968.00
2018-07-06T11:50:15.473Z,8284.00
2018-07-06T11:51:15.400Z,6380.00
2018-07-06T11:52:15.340Z,5908.00
2018-07-06T11:53:15.256Z,6124.00
2018-07-06T11:54:15.186Z,6560.00
2018-07-06T11:55:15.129Z,7724.00
2018-07-06T11:56:15.051Z,7944.00
2018-07-06T11:57:14.978Z,9128.00
2018-07-06T11:58:14.974Z,8584.00
2018-07-06T11:59:14.841Z,10524.00
2018-07-06T12:00:14.784Z,12292.00
2018-07-06T12:01:14.704Z,12032.00
2018-07-06T12:02:14.635Z,13960.00
2018-07-06T12:03:14.562Z,13200.00
2018-07-06T12:04:14.629Z,11944.00
2018-07-06T12:05:14.424Z,12508.00
2018-07-06T12:06:14.357Z,13572.00
2018-07-06T12:07:14.290Z,13292.00
2018-07-06T12:08:14.227Z,15284.00
2018-07-06T12:09:14.208Z,14312.00
2018-07-06T12:10:14.079Z,11972.00
2018-07-06T12:11:14.010Z,11140.00
2018-07-06T12:12:13.941Z,10368.00
2018-07-06T12:13:13.874Z,9284.00
2018-07-06T12:14:13.806Z,8512.00
2018-07-06T12:15:13.737Z,7912.00
2018-07-06T12:16:13.670Z,7728.00
2018-07-06T12:17:13.597Z,7908.00
2018-07-06T12:18:13.529Z,8112.00
2018-07-06T12:19:13.459Z,8624.00
2018-07-06T12:20:13.392Z,9340.00
2018-07-06T12:21:13.415Z,10100.00
2018-07-06T12:22:13.252Z,12172.00
2018-07-06T12:23:13.182Z,14792.00
2018-07-06T12:24:13.119Z,12992.00
2018-07-06T12:25:13.047Z,14536.00
2018-07-06T12:26:12.975Z,15272.00
2018-07-06T12:27:12.923Z,16704.00
2018-07-06T12:28:12.839Z,17152.00
2018-07-06T12:29:12.800Z,15624.00